Time;durP1;ratioP1;P1;durP2;ratioP2;P2;SDS_P1;SDS_P2;PMS_P1;PMS_P2;Temp;Humidity;BMP_temperature;BMP_pressure;BME280_temperature;BME280_humidity;BME280_pressure;Samples;Min_cycle;Max_cycle;Signal;HPM_P1;HPM_P2
2022/07/21 00:00:24;;;;;;;2.58;1.80;;;;;;;26.91;37.77;100640.56;1727395;81;21109;-81
2022/07/21 00:02:51;;;;;;;2.58;2.10;;;;;;;26.91;37.78;100628.00;1727570;81;21033;-81
2022/07/21 00:05:17;;;;;;;3.22;1.75;;;;;;;26.91;37.81;100629.98;1726905;83;22079;-81
2022/07/21 00:07:44;;;;;;;3.45;2.27;;;;;;;26.91;37.82;100632.19;1726908;81;21036;-81
2022/07/21 00:10:10;;;;;;;3.95;2.02;;;;;;;26.91;37.81;100626.60;1727313;81;22096;-81
2022/07/21 00:12:36;;;;;;;3.17;2.00;;;;;;;26.90;37.84;100625.01;1727233;81;21061;-81
2022/07/21 00:15:06;;;;;;;2.52;2.00;;;;;;;26.91;37.84;100631.38;1727292;83;21423;-81
2022/07/21 00:17:33;;;;;;;4.10;2.42;;;;;;;26.91;37.83;100635.56;1727577;81;21097;-81
2022/07/21 00:20:00;;;;;;;3.02;2.02;;;;;;;26.91;37.85;100629.98;1726862;83;21532;-81
2022/07/21 00:22:27;;;;;;;3.27;1.98;;;;;;;26.90;37.87;100630.59;1727489;81;21061;-81
2022/07/21 00:24:53;;;;;;;3.77;2.37;;;;;;;26.90;37.87;100634.78;1727326;81;21092;-81
2022/07/21 00:27:20;;;;;;;3.87;2.40;;;;;;;26.90;37.88;100630.59;1727017;81;21654;-81
2022/07/21 00:29:46;;;;;;;3.45;2.10;;;;;;;26.91;37.89;100632.77;1727233;81;21296;-81
2022/07/21 00:32:12;;;;;;;3.10;1.90;;;;;;;26.91;37.90;100636.95;1727631;81;21037;-81
2022/07/21 00:34:39;;;;;;;3.87;2.27;;;;;;;26.90;37.91;100633.38;1727247;83;21730;-81
2022/07/21 00:37:05;;;;;;;2.62;1.80;;;;;;;26.90;37.91;100631.98;1727182;81;21068;-82
2022/07/21 00:39:32;;;;;;;4.37;1.92;;;;;;;26.90;37.94;100629.20;1727154;81;21093;-81
2022/07/21 00:41:58;;;;;;;4.05;2.10;;;;;;;26.90;37.94;100631.98;1727155;81;21081;-82
2022/07/21 00:44:26;;;;;;;3.95;2.12;;;;;;;26.90;37.97;100626.98;1727155;81;21571;-81
2022/07/21 00:46:53;;;;;;;2.75;2.02;;;;;;;26.90;37.97;100627.80;1727049;81;21553;-81
2022/07/21 00:49:20;;;;;;;4.08;2.00;;;;;;;26.90;38.00;100628.38;1726629;81;21329;-82
2022/07/21 00:51:47;;;;;;;2.90;1.90;;;;;;;26.90;38.00;100625.01;1727280;81;21124;-81
2022/07/21 00:54:15;;;;;;;3.15;1.85;;;;;;;26.90;38.02;100629.20;1726984;81;21959;-82
2022/07/21 00:56:42;;;;;;;3.50;1.90;;;;;;;26.90;38.02;100620.82;1726841;81;21066;-81
2022/07/21 00:59:08;;;;;;;2.80;2.20;;;;;;;26.90;38.02;100618.61;1724387;81;21140;-81
2022/07/21 01:01:35;;;;;;;4.58;2.10;;;;;;;26.90;38.04;100622.22;1719740;83;21065;-81
2022/07/21 01:04:01;;;;;;;3.08;1.65;;;;;;;26.90;38.05;100614.42;1719575;83;21073;-81
2022/07/21 01:06:27;;;;;;;3.37;1.98;;;;;;;26.90;38.07;100614.42;1719300;82;21568;-81
2022/07/21 01:08:54;;;;;;;3.42;2.10;;;;;;;26.89;38.05;100610.82;1718964;82;21124;-81
2022/07/21 01:11:21;;;;;;;2.40;1.80;;;;;;;26.90;38.08;100611.63;1700631;82;21089;-81
2022/07/21 01:13:48;;;;;;;3.77;2.35;;;;;;;26.89;38.09;100605.23;1719360;82;21521;-82
2022/07/21 01:16:14;;;;;;;3.27;2.22;;;;;;;26.89;38.10;100606.63;1719227;83;21085;-82
2022/07/21 01:18:41;;;;;;;2.47;1.87;;;;;;;26.90;38.10;100609.66;1718676;83;21128;-82
2022/07/21 01:21:34;;;;;;;3.35;2.25;;;;;;;26.90;38.11;100607.45;1719230;82;21093;-82
2022/07/21 01:24:01;;;;;;;3.25;2.10;;;;;;;26.90;38.13;100611.63;1719178;83;21129;-82
2022/07/21 01:26:27;;;;;;;2.80;1.87;;;;;;;26.87;38.11;100600.59;1719378;83;21081;-81
2022/07/21 01:28:54;;;;;;;4.03;1.90;;;;;;;26.89;38.13;100619.78;1719785;83;21635;-81
2022/07/21 01:31:20;;;;;;;2.50;1.77;;;;;;;26.89;38.14;100626.76;1719275;82;21864;-81
2022/07/21 01:33:46;;;;;;;3.70;1.67;;;;;;;26.89;38.16;100618.38;1719518;83;21042;-82
2022/07/21 01:36:13;;;;;;;3.02;1.80;;;;;;;26.88;38.16;100624.55;1719552;82;21145;-82
2022/07/21 01:41:30;;;;;;;3.67;2.08;;;;;;;26.88;38.18;100621.76;1719357;83;21057;-81
2022/07/21 01:43:57;;;;;;;3.30;2.27;;;;;;;26.88;38.17;100626.53;1719041;82;21347;-81
2022/07/21 01:46:25;;;;;;;2.98;1.90;;;;;;;26.88;38.18;100623.16;1719291;82;21100;-82
2022/07/21 01:48:51;;;;;;;2.52;1.77;;;;;;;26.88;38.20;100628.73;1719466;82;21657;-81
2022/07/21 01:51:18;;;;;;;3.92;2.00;;;;;;;26.88;38.22;100623.73;1718890;82;21046;-81
2022/07/21 01:53:44;;;;;;;4.30;2.15;;;;;;;26.88;38.24;100613.38;1719211;82;21092;-81
2022/07/21 01:56:10;;;;;;;5.05;2.20;;;;;;;26.87;38.24;100618.73;1725185;83;21619;-81
2022/07/21 01:58:37;;;;;;;3.17;2.20;;;;;;;26.88;38.25;100618.16;1718938;82;21053;-81
2022/07/21 02:01:03;;;;;;;3.40;2.42;;;;;;;26.88;38.27;100612.57;1719491;82;21046;-81
2022/07/21 02:03:30;;;;;;;3.00;1.90;;;;;;;26.88;38.29;100612.57;1719696;83;21022;-81
2022/07/21 02:06:04;;;;;;;2.70;2.05;;;;;;;26.87;38.29;100610.36;1719262;82;21786;-82
2022/07/21 02:08:31;;;;;;;2.80;1.87;;;;;;;26.88;38.30;100611.17;1718938;82;21097;-82
2022/07/21 02:10:58;;;;;;;3.75;1.92;;;;;;;26.88;38.31;100610.59;1718194;82;21538;-81
2022/07/21 02:13:24;;;;;;;3.00;1.90;;;;;;;26.89;38.31;100611.41;1699734;83;21068;-81
2022/07/21 02:15:51;;;;;;;2.30;1.80;;;;;;;26.88;38.31;100608.38;1699863;83;21112;-81
2022/07/21 02:18:19;;;;;;;3.47;2.02;;;;;;;26.87;38.34;100611.76;1699461;84;21607;-81
2022/07/21 02:20:47;;;;;;;2.52;2.05;;;;;;;26.88;38.34;100609.78;1699603;84;21039;-82
2022/07/21 02:23:15;;;;;;;3.15;1.85;;;;;;;26.88;38.34;100608.38;1699750;84;21495;-81
2022/07/21 02:25:41;;;;;;;3.02;2.17;;;;;;;26.88;38.35;100622.34;1699804;84;21366;-81
2022/07/21 02:28:08;;;;;;;3.52;2.00;;;;;;;26.87;38.35;100615.95;1699713;84;21108;-82
2022/07/21 02:30:34;;;;;;;2.80;1.92;;;;;;;26.88;38.36;100618.16;1699928;84;21559;-82
2022/07/21 02:33:01;;;;;;;3.83;2.30;;;;;;;26.87;38.37;100625.72;1699504;84;22285;-81
2022/07/21 02:35:27;;;;;;;3.33;1.80;;;;;;;26.88;38.36;100623.73;1699613;84;21112;-81
2022/07/21 02:37:54;;;;;;;3.70;2.10;;;;;;;26.88;38.39;100623.16;1699795;83;21061;-81
2022/07/21 02:40:20;;;;;;;2.55;1.85;;;;;;;26.88;38.40;100630.72;1699561;84;21685;-82
2022/07/21 02:42:47;;;;;;;2.65;1.72;;;;;;;26.88;38.41;100628.73;1699758;84;21113;-81
2022/07/21 02:45:13;;;;;;;3.17;2.10;;;;;;;26.88;38.41;100627.34;1699708;84;21151;-82
2022/07/21 02:48:07;;;;;;;2.95;2.00;;;;;;;26.87;38.41;100629.09;1676343;84;21024;-81
2022/07/21 02:50:35;;;;;;;2.70;2.00;;;;;;;26.88;38.42;100630.72;1657584;85;21029;-81
2022/07/21 02:53:05;;;;;;;3.08;1.98;;;;;;;26.88;38.42;100633.51;1672699;85;21064;-81
2022/07/21 02:55:32;;;;;;;2.45;1.60;;;;;;;26.87;38.42;100635.48;1673173;85;21115;-81
2022/07/21 02:58:13;;;;;;;3.80;2.37;;;;;;;26.87;38.43;100643.05;1672900;85;21111;-82
2022/07/21 03:00:45;;;;;;;2.83;1.95;;;;;;;26.87;38.46;100648.05;1693986;83;21684;-82
2022/07/21 03:03:12;;;;;;;2.80;2.10;;;;;;;26.86;38.47;100650.64;1702792;83;21528;-81
2022/07/21 03:05:39;;;;;;;3.77;2.05;;;;;;;26.87;38.48;100654.22;1686404;84;21126;-81
2022/07/21 03:08:06;;;;;;;2.85;2.00;;;;;;;26.87;38.48;100655.03;1702349;83;21177;-81
2022/07/21 03:10:32;;;;;;;3.33;2.15;;;;;;;26.86;38.49;100655.41;1702715;84;21043;-82
2022/07/21 03:12:58;;;;;;;2.85;1.95;;;;;;;26.87;38.49;100663.41;1702407;84;20976;-82
2022/07/21 03:15:25;;;;;;;2.72;1.90;;;;;;;26.86;38.51;100659.02;1702461;83;21106;-81
2022/07/21 03:17:55;;;;;;;2.87;2.17;;;;;;;26.86;38.51;100667.39;1702644;84;21046;-82
2022/07/21 03:20:28;;;;;;;2.70;1.87;;;;;;;26.87;38.53;100659.80;1703075;83;21047;-81
2022/07/21 03:22:54;;;;;;;3.10;2.12;;;;;;;26.87;38.51;100661.19;1701713;82;21239;-82
2022/07/21 03:25:21;;;;;;;4.03;2.02;;;;;;;26.86;38.55;100668.79;1670982;85;21109;-81
2022/07/21 03:27:47;;;;;;;3.05;1.95;;;;;;;26.86;38.56;100658.20;1670972;85;21124;-82
2022/07/21 03:30:14;;;;;;;2.75;2.00;;;;;;;26.86;38.56;100660.41;1670856;85;21070;-81
2022/07/21 03:32:40;;;;;;;3.10;2.17;;;;;;;26.87;38.56;100662.59;1671335;85;21549;-82
2022/07/21 03:35:08;;;;;;;3.17;2.00;;;;;;;26.87;38.56;100667.59;1671145;85;21192;-82
2022/07/21 03:37:51;;;;;;;2.90;1.90;;;;;;;26.87;38.55;100668.98;1670556;85;21031;-82
2022/07/21 03:40:22;;;;;;;2.45;1.80;;;;;;;26.86;38.57;100670.19;1670884;85;21051;-81
2022/07/21 03:42:50;;;;;;;3.27;1.95;;;;;;;26.87;38.58;100685.73;1658931;84;21571;-81
2022/07/21 03:45:16;;;;;;;2.22;1.77;;;;;;;26.87;38.59;100682.13;1659257;85;21025;-81
2022/07/21 03:47:43;;;;;;;3.98;1.80;;;;;;;26.86;38.59;100691.12;1659164;85;22100;-81
2022/07/21 03:50:11;;;;;;;4.55;2.05;;;;;;;26.88;38.59;100685.16;1658759;85;21063;-81
2022/07/21 03:52:38;;;;;;;2.95;2.10;;;;;;;26.86;38.62;100688.33;1659144;85;21536;-81
2022/07/21 03:55:08;;;;;;;3.55;2.08;;;;;;;26.87;38.61;100682.94;1659127;85;21093;-81
2022/07/21 03:57:39;;;;;;;3.10;2.08;;;;;;;26.89;38.61;100696.55;1659158;85;21566;-81
2022/07/21 04:00:10;;;;;;;3.77;2.22;;;;;;;26.88;38.61;100692.13;1661906;84;21598;-81
2022/07/21 04:02:36;;;;;;;3.20;2.08;;;;;;;26.88;38.63;100687.36;1727896;81;21136;-80
2022/07/21 04:05:04;;;;;;;2.40;1.90;;;;;;;26.88;38.62;100695.73;1728124;81;21114;-80
2022/07/21 04:07:30;;;;;;;2.75;1.75;;;;;;;26.87;38.63;100695.50;1727925;81;21040;-80
2022/07/21 04:09:56;;;;;;;3.40;2.00;;;;;;;26.88;38.66;100694.92;1696784;83;21108;-80
2022/07/21 04:12:28;;;;;;;3.12;1.90;;;;;;;26.87;38.67;100694.11;1699238;83;21071;-81
2022/07/21 04:14:55;;;;;;;3.27;2.08;;;;;;;26.88;38.66;100694.34;1727873;81;21045;-81
2022/07/21 04:17:22;;;;;;;3.42;1.77;;;;;;;26.88;38.63;100704.11;1727789;81;20960;-81
2022/07/21 04:19:48;;;;;;;3.10;2.10;;;;;;;26.89;38.68;100697.95;1727810;81;21056;-81
2022/07/21 04:22:15;;;;;;;2.87;1.90;;;;;;;26.88;38.68;100697.72;1728189;81;21712;-81
2022/07/21 04:24:41;;;;;;;2.83;2.05;;;;;;;26.89;38.68;100699.34;1697071;83;21108;-80
2022/07/21 04:27:08;;;;;;;3.00;1.92;;;;;;;26.89;38.69;100699.34;1728214;83;21068;-81
2022/07/21 04:29:34;;;;;;;2.80;2.10;;;;;;;26.89;38.70;100700.16;1728219;83;21031;-81
2022/07/21 04:32:07;;;;;;;2.72;1.85;;;;;;;26.89;38.71;100696.55;1728074;81;21039;-81
2022/07/21 04:34:33;;;;;;;2.62;1.92;;;;;;;26.89;38.71;100700.73;1697614;83;21667;-81
2022/07/21 04:36:59;;;;;;;2.77;1.90;;;;;;;26.89;38.71;100695.97;1728151;83;21280;-81
2022/07/21 04:39:26;;;;;;;3.27;2.20;;;;;;;26.89;38.72;100700.73;1751004;80;21263;-81
2022/07/21 04:41:52;;;;;;;3.83;1.87;;;;;;;26.90;38.73;100705.16;1753987;80;21074;-81
2022/07/21 04:44:25;;;;;;;3.75;2.00;;;;;;;26.90;38.72;100703.77;1753610;81;21060;-81
2022/07/21 04:46:51;;;;;;;2.40;2.02;;;;;;;26.89;38.74;100704.34;1753710;81;21683;-81
2022/07/21 04:49:20;;;;;;;2.60;1.82;;;;;;;26.90;38.74;100703.77;1753798;80;21290;-81
2022/07/21 04:51:51;;;;;;;3.35;2.00;;;;;;;26.90;38.74;100710.16;1753217;80;21056;-81
2022/07/21 04:54:17;;;;;;;2.67;2.02;;;;;;;26.90;38.76;100711.55;1753815;80;21087;-81
2022/07/21 04:56:44;;;;;;;4.33;1.90;;;;;;;26.89;38.74;100718.30;1753914;81;21090;-81
2022/07/21 04:59:10;;;;;;;3.22;1.87;;;;;;;26.90;38.74;100723.30;1754037;81;21579;-81
2022/07/21 05:01:37;;;;;;;3.12;2.15;;;;;;;26.90;38.77;100728.30;1753416;80;21173;-80
2022/07/21 05:04:04;;;;;;;4.47;2.08;;;;;;;26.90;38.77;100731.09;1754255;81;21008;-81
2022/07/21 05:06:30;;;;;;;2.83;1.92;;;;;;;26.91;38.74;100730.48;1753971;80;21087;-80
2022/07/21 05:08:57;;;;;;;2.22;1.90;;;;;;;26.91;38.77;100731.87;1753787;80;21035;-81
2022/07/21 05:11:24;;;;;;;3.95;2.25;;;;;;;26.90;38.76;100726.91;1754175;80;21460;-80
2022/07/21 05:13:50;;;;;;;2.72;1.90;;;;;;;26.91;38.76;100731.30;1758277;80;22046;-81
2022/07/21 05:16:17;;;;;;;4.03;2.08;;;;;;;26.91;38.73;100738.27;1757694;80;21129;-81
2022/07/21 05:18:43;;;;;;;2.85;1.98;;;;;;;26.92;38.77;100737.11;1758478;80;21062;-81
2022/07/21 05:21:09;;;;;;;3.02;2.00;;;;;;;26.91;38.74;100738.27;1758482;80;21055;-81
2022/07/21 05:23:36;;;;;;;3.17;1.98;;;;;;;26.91;38.76;100738.86;1758329;80;21073;-80
2022/07/21 05:26:03;;;;;;;2.40;1.77;;;;;;;26.91;38.72;100742.47;1758274;80;21126;-81
2022/07/21 05:28:29;;;;;;;3.90;2.17;;;;;;;26.91;38.68;100745.25;1758452;81;21105;-81
2022/07/21 05:30:56;;;;;;;3.20;1.98;;;;;;;26.92;38.66;100748.28;1768762;80;21039;-81
2022/07/21 05:33:22;;;;;;;3.52;1.92;;;;;;;26.93;38.67;100743.51;1789023;78;20992;-81
2022/07/21 05:35:49;;;;;;;3.22;2.00;;;;;;;26.92;38.66;100751.66;1789754;78;21020;-80
2022/07/21 05:38:15;;;;;;;3.87;1.98;;;;;;;26.92;38.62;100751.07;1788942;80;21199;-80
2022/07/21 05:40:42;;;;;;;2.65;1.87;;;;;;;26.94;38.62;100755.72;1788995;78;21016;-80
2022/07/21 05:43:08;;;;;;;3.72;2.25;;;;;;;26.93;38.59;100750.48;1789731;80;21059;-80
2022/07/21 05:45:35;;;;;;;5.08;1.92;;;;;;;26.94;38.60;100753.52;1789534;78;21075;-81
2022/07/21 05:48:01;;;;;;;2.50;1.90;;;;;;;26.94;38.62;100761.89;1778527;80;21050;-81
2022/07/21 05:50:28;;;;;;;2.37;1.85;;;;;;;26.94;38.62;100759.91;1758609;81;20954;-81
2022/07/21 05:52:54;;;;;;;4.58;2.10;;;;;;;26.94;38.63;100759.09;1758368;80;21208;-81
2022/07/21 05:55:20;;;;;;;2.95;1.80;;;;;;;26.94;38.62;100762.70;1758532;80;21041;-81
2022/07/21 05:57:47;;;;;;;2.70;2.10;;;;;;;26.93;38.60;100761.08;1758698;80;20942;-81
2022/07/21 06:00:15;;;;;;;2.00;1.60;;;;;;;26.94;38.59;100768.28;1757306;80;21073;-81
2022/07/21 06:02:41;;;;;;;3.98;2.30;;;;;;;26.95;38.62;100766.27;1750797;81;21167;-80
2022/07/21 06:05:10;;;;;;;2.30;1.70;;;;;;;26.95;38.66;100760.69;1730573;80;21042;-81
2022/07/21 06:07:37;;;;;;;2.98;1.90;;;;;;;26.94;38.64;100761.30;1750454;80;21090;-81
2022/07/21 06:10:04;;;;;;;2.62;1.95;;;;;;;26.95;38.68;100762.90;1751074;80;21071;-82
2022/07/21 06:12:31;;;;;;;2.40;1.80;;;;;;;26.95;38.64;100766.27;1776826;79;21004;-82
2022/07/21 06:14:57;;;;;;;2.08;1.80;;;;;;;26.95;38.66;100763.48;1750668;80;21637;-83
2022/07/21 06:17:24;;;;;;;4.03;1.90;;;;;;;26.95;38.68;100760.11;1750867;80;20995;-83
2022/07/21 06:19:50;;;;;;;2.33;1.70;;;;;;;26.95;38.76;100764.30;1750877;80;21014;-82
2022/07/21 06:22:16;;;;;;;2.87;1.70;;;;;;;26.96;38.86;100760.34;1741678;81;21044;-82
2022/07/21 06:24:43;;;;;;;3.85;1.90;;;;;;;26.95;38.91;100757.31;1742144;82;21664;-82
2022/07/21 06:27:09;;;;;;;3.85;1.87;;;;;;;26.96;38.91;100758.13;1732804;81;21019;-82
2022/07/21 06:29:36;;;;;;;3.80;2.33;;;;;;;26.96;38.89;100757.55;1732793;82;21055;-81
2022/07/21 06:32:02;;;;;;;3.58;1.72;;;;;;;26.96;38.89;100757.55;1733599;81;21011;-82
2022/07/21 06:34:28;;;;;;;3.00;1.55;;;;;;;26.97;38.89;100760.57;1734700;80;21143;-83
2022/07/21 06:36:55;;;;;;;5.53;2.55;;;;;;;26.97;38.89;100759.76;1756763;80;21405;-82
2022/07/21 06:39:21;;;;;;;6.35;2.12;;;;;;;26.97;38.93;100763.36;1750229;80;21252;-82
2022/07/21 06:41:47;;;;;;;3.30;2.33;;;;;;;26.97;38.94;100757.78;1749274;80;20980;-82
2022/07/21 06:44:14;;;;;;;4.67;2.00;;;;;;;26.98;39.02;100757.20;1760556;80;21052;-82
2022/07/21 06:46:40;;;;;;;5.30;2.00;;;;;;;26.97;39.05;100754.98;1752640;81;21119;-82
2022/07/21 06:49:07;;;;;;;6.42;2.42;;;;;;;26.98;39.06;100753.82;1752387;80;21539;-82
2022/07/21 06:51:39;;;;;;;3.27;2.17;;;;;;;26.99;39.04;100746.26;1739216;80;21119;-82
2022/07/21 06:54:05;;;;;;;7.87;2.02;;;;;;;26.99;39.07;100754.64;1753443;80;21058;-82
2022/07/21 06:56:34;;;;;;;5.15;2.50;;;;;;;26.99;39.06;100752.63;1691472;84;21073;-82
2022/07/21 06:59:00;;;;;;;4.55;2.22;;;;;;;27.01;39.06;100745.30;1750160;80;21019;-82
2022/07/21 07:01:26;;;;;;;3.80;2.62;;;;;;;27.01;39.11;100744.72;1691031;83;21117;-82
2022/07/21 07:03:52;;;;;;;7.08;2.45;;;;;;;27.01;39.23;100744.72;1737636;80;21148;-83
2022/07/21 07:06:19;;;;;;;3.10;2.25;;;;;;;27.02;39.26;100740.75;1709525;81;21581;-82
2022/07/21 07:08:45;;;;;;;6.97;2.67;;;;;;;27.04;39.18;100742.58;1792540;78;21065;-83
2022/07/21 07:11:11;;;;;;;5.92;2.60;;;;;;;27.05;39.09;100740.60;1769174;80;21055;-82
2022/07/21 07:13:38;;;;;;;6.33;2.87;;;;;;;27.06;39.11;100743.62;1721739;81;21053;-83
2022/07/21 07:16:04;;;;;;;5.70;2.47;;;;;;;27.07;39.19;100738.27;1721546;82;21947;-83
2022/07/21 07:18:31;;;;;;;4.45;2.10;;;;;;;27.06;39.26;100741.64;1721144;83;21050;-83
2022/07/21 07:20:57;;;;;;;5.45;2.10;;;;;;;27.08;39.32;100738.47;1721186;81;21387;-82
2022/07/21 07:23:24;;;;;;;3.55;2.20;;;;;;;27.07;39.40;100727.91;1721050;83;21612;-82
2022/07/21 07:25:50;;;;;;;5.85;2.58;;;;;;;27.09;39.37;100733.11;1746710;81;21024;-83
2022/07/21 07:28:16;;;;;;;6.00;2.80;;;;;;;27.10;39.31;100730.55;1702536;83;21975;-82
2022/07/21 07:30:43;;;;;;;4.67;2.50;;;;;;;27.12;39.23;100730.41;1745034;80;21064;-83
2022/07/21 07:33:09;;;;;;;4.03;2.40;;;;;;;27.14;39.21;100731.45;1745108;82;21020;-82
2022/07/21 07:35:35;;;;;;;4.08;2.37;;;;;;;27.15;39.31;100735.28;1744976;82;21021;-82
2022/07/21 07:38:02;;;;;;;4.08;2.50;;;;;;;27.16;39.34;100727.69;1742442;81;21101;-82
2022/07/21 07:40:28;;;;;;;3.75;2.52;;;;;;;27.16;39.43;100734.08;1745547;80;20973;-82
2022/07/21 07:42:54;;;;;;;4.90;2.60;;;;;;;27.16;39.55;100732.69;1745016;80;21101;-82
2022/07/21 07:45:21;;;;;;;4.12;2.67;;;;;;;27.17;39.54;100730.12;1724931;81;21066;-82
2022/07/21 07:47:47;;;;;;;7.97;2.50;;;;;;;27.17;39.55;100734.31;1747190;80;21018;-82
2022/07/21 07:50:14;;;;;;;6.08;3.02;;;;;;;27.18;39.59;100730.94;1718702;80;21046;-83
2022/07/21 07:52:41;;;;;;;5.85;2.55;;;;;;;27.19;39.48;100740.95;1708740;82;21042;-82
2022/07/21 07:55:10;;;;;;;4.30;2.75;;;;;;;27.19;39.40;100734.77;1720643;81;21117;-82
2022/07/21 07:57:37;;;;;;;4.85;2.90;;;;;;;27.20;39.40;100728.60;1721318;81;21323;-82
2022/07/21 08:00:06;;;;;;;7.37;2.90;;;;;;;27.20;39.39;100737.77;1717198;81;21061;-81
2022/07/21 08:02:33;;;;;;;5.90;2.47;;;;;;;27.20;39.35;100736.37;1724039;81;21103;-82
2022/07/21 08:05:06;;;;;;;5.42;2.87;;;;;;;27.21;39.32;100734.39;1755823;80;21132;-83
2022/07/21 08:07:32;;;;;;;11.73;3.05;;;;;;;27.21;39.30;100738.00;1754039;80;21110;-82
2022/07/21 08:10:05;;;;;;;8.63;3.00;;;;;;;27.22;39.28;100741.60;1753676;78;21637;-82
2022/07/21 08:12:32;;;;;;;8.90;3.00;;;;;;;27.22;39.23;100731.24;1757362;81;21085;-82
2022/07/21 08:14:58;;;;;;;5.75;3.27;;;;;;;27.23;39.26;100736.25;1748924;80;21585;-82
2022/07/21 08:17:24;;;;;;;6.62;3.08;;;;;;;27.22;39.23;100735.44;1761966;80;22219;-82
2022/07/21 08:19:51;;;;;;;6.62;3.02;;;;;;;27.23;39.26;100732.05;1756560;80;21050;-82
2022/07/21 08:22:17;;;;;;;5.22;2.98;;;;;;;27.23;39.20;100718.91;1757004;80;21615;-81
2022/07/21 08:24:44;;;;;;;5.28;2.90;;;;;;;27.23;39.15;100725.89;1756672;80;21097;-81
2022/07/21 08:27:10;;;;;;;6.40;2.95;;;;;;;27.24;39.18;100716.92;1756692;80;21023;-82
2022/07/21 08:29:36;;;;;;;5.35;2.72;;;;;;;27.24;39.17;100723.29;1756035;80;21705;-81
2022/07/21 08:32:03;;;;;;;6.22;2.90;;;;;;;27.25;39.15;100719.33;1746764;80;21025;-82
2022/07/21 08:34:30;;;;;;;5.45;2.80;;;;;;;27.26;39.12;100718.75;1756044;80;21082;-81
2022/07/21 08:36:57;;;;;;;3.35;2.80;;;;;;;27.26;39.05;100723.75;1750730;80;21026;-81
2022/07/21 08:39:24;;;;;;;3.35;2.50;;;;;;;27.26;38.96;100716.77;1747395;80;21542;-81
2022/07/21 08:41:51;;;;;;;7.60;2.85;;;;;;;27.26;38.91;100713.16;1752598;80;21050;-81
2022/07/21 08:44:20;;;;;;;5.65;2.90;;;;;;;27.27;38.87;100710.59;1756716;80;21117;-82
2022/07/21 08:46:49;;;;;;;4.58;3.20;;;;;;;27.27;38.85;100716.19;1756751;80;21274;-82
2022/07/21 08:49:16;;;;;;;3.33;2.98;;;;;;;27.27;38.89;100721.77;1767325;80;21034;-81
2022/07/21 08:51:42;;;;;;;4.65;2.83;;;;;;;27.28;38.86;100713.62;1780043;78;21123;-81
2022/07/21 08:54:09;;;;;;;8.45;2.80;;;;;;;27.28;38.82;100723.40;1736694;80;21709;-81
2022/07/21 08:56:35;;;;;;;4.62;2.83;;;;;;;27.29;38.79;100718.01;1760158;80;21304;-81
2022/07/21 08:59:02;;;;;;;3.65;3.00;;;;;;;27.30;38.77;100713.23;1725974;83;21053;-81
2022/07/21 09:01:28;;;;;;;5.17;3.12;;;;;;;27.30;38.74;100711.25;1746960;81;21077;-82
2022/07/21 09:04:20;;;;;;;4.58;2.67;;;;;;;27.30;38.72;100708.46;1722607;83;21102;-82
2022/07/21 09:07:07;;;;;;;5.47;2.83;;;;;;;27.30;38.65;100708.46;1714108;81;22199;-82
2022/07/21 09:09:35;;;;;;;5.92;3.37;;;;;;;27.29;38.62;100711.03;1724558;81;21669;-82
2022/07/21 09:12:02;;;;;;;9.98;3.30;;;;;;;27.32;38.66;100711.71;1724462;81;21603;-82
2022/07/21 09:14:33;;;;;;;4.20;3.25;;;;;;;27.35;38.63;100705.39;1720500;81;21042;-83
2022/07/21 09:17:02;;;;;;;7.45;3.12;;;;;;;27.37;38.58;100705.03;1748807;80;21062;-82
2022/07/21 09:19:33;;;;;;;3.80;3.03;;;;;;;27.38;38.44;100705.23;1753607;80;21380;-82
2022/07/21 09:22:01;;;;;;;4.95;2.92;;;;;;;27.39;38.44;100702.66;1750061;81;21070;-82
2022/07/21 09:24:38;;;;;;;4.28;3.33;;;;;;;27.42;38.37;100694.94;1756075;80;21069;-81
2022/07/21 09:27:09;;;;;;;7.47;3.92;;;;;;;27.41;38.39;100698.93;1754428;80;21067;-82
2022/07/21 09:29:57;;;;;;;6.62;4.17;;;;;;;27.40;38.43;100697.30;1723497;81;20981;-81
2022/07/21 09:32:33;;;;;;;6.50;3.98;;;;;;;27.40;38.44;100696.72;1726356;81;21067;-82
2022/07/21 09:35:03;;;;;;;8.40;4.35;;;;;;;27.44;38.39;100697.60;1725466;83;21680;-82
2022/07/21 09:37:30;;;;;;;8.75;3.87;;;;;;;27.51;38.32;100702.55;1714389;81;21385;-82
2022/07/21 09:40:00;;;;;;;6.92;3.27;;;;;;;27.54;38.25;100694.85;1701352;83;21044;-82
2022/07/21 09:42:32;;;;;;;5.70;3.87;;;;;;;27.58;38.10;100692.94;1721222;83;21036;-82
2022/07/21 09:45:01;;;;;;;6.28;3.37;;;;;;;27.60;38.04;100684.98;1704581;81;21660;-80
2022/07/21 09:47:29;;;;;;;7.15;3.52;;;;;;;27.61;37.98;100678.22;1718557;82;21040;-81
2022/07/21 09:49:57;;;;;;;5.87;3.40;;;;;;;27.64;37.95;100677.47;1720649;81;21099;-80
2022/07/21 09:52:31;;;;;;;6.47;3.65;;;;;;;27.64;37.87;100684.45;1724894;81;21267;-81
2022/07/21 09:55:01;;;;;;;5.35;3.77;;;;;;;27.62;37.84;100678.45;1721448;81;21731;-81
2022/07/21 09:57:28;;;;;;;4.85;3.15;;;;;;;27.61;37.85;100678.22;1723603;81;22179;-81
2022/07/21 09:59:54;;;;;;;4.65;3.05;;;;;;;27.59;37.85;100671.59;1709593;81;21063;-82
2022/07/21 10:02:27;;;;;;;5.12;2.75;;;;;;;27.57;37.84;100677.34;1716920;83;21503;-81
2022/07/21 10:05:05;;;;;;;5.95;3.62;;;;;;;27.58;37.90;100677.56;1711381;83;21489;-82
2022/07/21 10:07:32;;;;;;;5.03;3.17;;;;;;;27.64;37.78;100675.48;1679292;84;21088;-82
2022/07/21 10:09:59;;;;;;;3.98;2.87;;;;;;;27.67;37.69;100677.53;1683190;84;21886;-82
2022/07/21 10:12:26;;;;;;;6.75;3.20;;;;;;;27.71;37.59;100679.00;1699323;83;21010;-82
2022/07/21 10:14:53;;;;;;;4.20;3.00;;;;;;;27.73;37.57;100682.25;1685842;85;21053;-80
2022/07/21 10:17:21;;;;;;;7.47;3.25;;;;;;;27.75;37.52;100677.70;1674359;85;21026;-82
2022/07/21 10:20:11;;;;;;;6.75;3.00;;;;;;;27.75;37.47;100685.50;1693293;83;21056;-82
2022/07/21 10:23:16;;;;;;;3.27;2.90;;;;;;;27.73;37.52;100683.65;1684394;84;21129;-81
2022/07/21 10:25:43;;;;;;;6.45;3.02;;;;;;;27.71;37.58;100677.61;1685168;85;21041;-82
2022/07/21 10:28:18;;;;;;;4.87;3.17;;;;;;;27.67;37.58;100673.94;1687079;84;21026;-81
2022/07/21 10:30:55;;;;;;;7.58;2.70;;;;;;;27.65;37.62;100673.51;1681134;84;21041;-81
2022/07/21 10:33:46;;;;;;;5.00;3.33;;;;;;;27.66;37.63;100672.34;1684234;85;21734;-82
2022/07/21 10:36:33;;;;;;;3.77;2.77;;;;;;;27.64;37.63;100667.69;1688849;83;22124;-82
2022/07/21 10:39:16;;;;;;;3.40;2.70;;;;;;;27.61;37.67;100669.83;1687114;85;21013;-81
2022/07/21 10:41:47;;;;;;;3.27;2.52;;;;;;;27.60;37.71;100669.61;1664535;83;21057;-81
2022/07/21 10:44:31;;;;;;;6.85;3.08;;;;;;;27.58;37.81;100669.19;1697864;83;21175;-80
2022/07/21 10:47:23;;;;;;;6.08;3.27;;;;;;;27.57;37.84;100671.75;1686337;83;21066;-83
2022/07/21 10:49:58;;;;;;;7.87;3.15;;;;;;;27.57;37.73;100664.77;1691557;83;21136;-83
2022/07/21 10:52:42;;;;;;;4.40;3.47;;;;;;;27.61;37.62;100662.27;1677713;84;21041;-82
2022/07/21 10:55:17;;;;;;;3.95;3.15;;;;;;;27.60;37.66;100659.83;1702739;83;20944;-82
2022/07/21 10:57:51;;;;;;;6.72;3.25;;;;;;;27.59;37.70;100659.02;1691826;83;21067;-82
2022/07/21 11:00:22;;;;;;;3.95;2.95;;;;;;;27.59;37.71;100663.20;1681583;84;21034;-80
2022/07/21 11:02:57;;;;;;;;;;;;;;;27.58;37.68;100661.58;1715287;80;21766;-84
2022/07/21 11:05:26;;;;;;;3.85;3.30;;;;;;;27.59;37.58;100650.63;1730338;82;20571;-83
2022/07/21 11:08:24;;;;;;;4.53;2.75;;;;;;;27.58;37.62;100648.22;1741495;80;21045;-82
2022/07/21 11:10:51;;;;;;;6.00;3.08;;;;;;;27.58;37.70;100651.02;1742292;82;21539;-82
2022/07/21 11:13:19;;;;;;;4.12;3.25;;;;;;;27.58;37.72;100645.42;1740326;80;21024;-82
2022/07/21 11:15:57;;;;;;;4.28;3.17;;;;;;;27.58;37.70;100646.83;1728130;83;21131;-82
2022/07/21 11:18:26;;;;;;;4.87;2.92;;;;;;;27.59;37.73;100646.44;1728959;82;21066;-83
2022/07/21 11:21:13;;;;;;;7.33;3.60;;;;;;;27.59;37.71;100633.05;1749181;80;21525;-82
2022/07/21 11:23:48;;;;;;;8.20;2.80;;;;;;;27.59;37.64;100631.65;1706348;83;21351;-84
2022/07/21 11:26:18;;;;;;;6.00;2.72;;;;;;;27.58;37.59;100631.45;1700328;83;21144;-81
2022/07/21 11:28:45;;;;;;;3.17;2.42;;;;;;;27.57;37.59;100632.04;1719738;82;21175;-83
2022/07/21 11:31:20;;;;;;;8.45;2.62;;;;;;;27.57;37.65;100630.64;1750601;81;21710;-83
2022/07/21 11:33:46;;;;;;;4.72;2.62;;;;;;;27.58;37.68;100628.66;1731029;81;21039;-82